sensor_id;sensor_type;location;lat;lon;timestamp;temperature;humidity
21493;DHT22;10908;50.690;4.400;2024-03-17T00:00:54;9.70;74.80
21493;DHT22;10908;50.690;4.400;2024-03-17T00:03:20;9.60;74.50
21493;DHT22;10908;50.690;4.400;2024-03-17T00:05:45;9.50;74.70
21493;DHT22;10908;50.690;4.400;2024-03-17T00:08:11;9.40;75.10
21493;DHT22;10908;50.690;4.400;2024-03-17T00:10:37;9.30;75.30
21493;DHT22;10908;50.690;4.400;2024-03-17T00:13:03;9.40;75.10
21493;DHT22;10908;50.690;4.400;2024-03-17T00:15:29;9.50;75.00
21493;DHT22;10908;50.690;4.400;2024-03-17T00:17:54;9.50;74.90
21493;DHT22;10908;50.690;4.400;2024-03-17T00:20:20;9.30;74.80
21493;DHT22;10908;50.690;4.400;2024-03-17T00:22:48;9.30;75.30
21493;DHT22;10908;50.690;4.400;2024-03-17T00:25:14;9.20;75.70
21493;DHT22;10908;50.690;4.400;2024-03-17T00:27:40;9.20;75.80
21493;DHT22;10908;50.690;4.400;2024-03-17T00:30:09;9.20;75.90
21493;DHT22;10908;50.690;4.400;2024-03-17T00:32:38;9.10;75.80
21493;DHT22;10908;50.690;4.400;2024-03-17T00:35:09;9.10;76.30
21493;DHT22;10908;50.690;4.400;2024-03-17T00:37:36;9.20;76.10
21493;DHT22;10908;50.690;4.400;2024-03-17T00:40:02;9.00;76.30
21493;DHT22;10908;50.690;4.400;2024-03-17T00:42:29;9.10;76.40
21493;DHT22;10908;50.690;4.400;2024-03-17T00:44:56;9.10;76.70
21493;DHT22;10908;50.690;4.400;2024-03-17T00:47:21;9.20;76.50
21493;DHT22;10908;50.690;4.400;2024-03-17T00:49:47;9.20;76.30
21493;DHT22;10908;50.690;4.400;2024-03-17T00:52:16;9.30;75.90
21493;DHT22;10908;50.690;4.400;2024-03-17T00:54:42;9.40;75.60
21493;DHT22;10908;50.690;4.400;2024-03-17T00:57:08;9.30;75.60
21493;DHT22;10908;50.690;4.400;2024-03-17T00:59:33;9.50;75.50
21493;DHT22;10908;50.690;4.400;2024-03-17T01:01:59;9.40;75.50
21493;DHT22;10908;50.690;4.400;2024-03-17T01:04:25;9.30;75.80
21493;DHT22;10908;50.690;4.400;2024-03-17T01:06:51;9.40;75.90
21493;DHT22;10908;50.690;4.400;2024-03-17T01:09:17;9.50;75.80
21493;DHT22;10908;50.690;4.400;2024-03-17T01:11:42;9.40;75.60
21493;DHT22;10908;50.690;4.400;2024-03-17T01:14:09;9.30;76.10
21493;DHT22;10908;50.690;4.400;2024-03-17T01:16:34;9.20;76.50
21493;DHT22;10908;50.690;4.400;2024-03-17T01:19:00;9.20;76.70
21493;DHT22;10908;50.690;4.400;2024-03-17T01:21:26;9.30;76.40
21493;DHT22;10908;50.690;4.400;2024-03-17T01:23:52;9.50;76.10
21493;DHT22;10908;50.690;4.400;2024-03-17T01:26:18;9.40;76.00
21493;DHT22;10908;50.690;4.400;2024-03-17T01:28:44;9.40;75.90
21493;DHT22;10908;50.690;4.400;2024-03-17T01:31:10;9.30;76.10
21493;DHT22;10908;50.690;4.400;2024-03-17T01:33:35;9.30;76.00
21493;DHT22;10908;50.690;4.400;2024-03-17T01:36:01;9.30;76.00
21493;DHT22;10908;50.690;4.400;2024-03-17T01:38:27;9.10;76.60
21493;DHT22;10908;50.690;4.400;2024-03-17T01:40:52;9.10;76.70
21493;DHT22;10908;50.690;4.400;2024-03-17T01:43:18;9.00;77.20
21493;DHT22;10908;50.690;4.400;2024-03-17T01:45:44;9.00;77.30
21493;DHT22;10908;50.690;4.400;2024-03-17T01:48:15;8.90;77.40
21493;DHT22;10908;50.690;4.400;2024-03-17T01:50:43;9.00;77.70
21493;DHT22;10908;50.690;4.400;2024-03-17T01:53:11;9.10;77.80
21493;DHT22;10908;50.690;4.400;2024-03-17T01:55:39;9.20;77.20
21493;DHT22;10908;50.690;4.400;2024-03-17T01:58:05;9.30;77.20
21493;DHT22;10908;50.690;4.400;2024-03-17T02:00:39;9.30;77.10
21493;DHT22;10908;50.690;4.400;2024-03-17T02:03:06;9.20;77.30
21493;DHT22;10908;50.690;4.400;2024-03-17T02:05:32;9.20;77.40
21493;DHT22;10908;50.690;4.400;2024-03-17T02:07:59;9.10;77.70
21493;DHT22;10908;50.690;4.400;2024-03-17T02:10:25;9.10;77.90
21493;DHT22;10908;50.690;4.400;2024-03-17T02:12:54;9.20;77.80
21493;DHT22;10908;50.690;4.400;2024-03-17T02:15:20;9.30;77.50
21493;DHT22;10908;50.690;4.400;2024-03-17T02:17:45;9.40;77.30
21493;DHT22;10908;50.690;4.400;2024-03-17T02:20:11;9.30;77.20
21493;DHT22;10908;50.690;4.400;2024-03-17T02:22:37;9.30;77.20
21493;DHT22;10908;50.690;4.400;2024-03-17T02:25:03;9.30;76.90
21493;DHT22;10908;50.690;4.400;2024-03-17T02:27:29;9.30;77.20
21493;DHT22;10908;50.690;4.400;2024-03-17T02:29:55;9.20;77.50
21493;DHT22;10908;50.690;4.400;2024-03-17T02:32:21;9.20;77.60
21493;DHT22;10908;50.690;4.400;2024-03-17T02:34:52;9.10;77.80
21493;DHT22;10908;50.690;4.400;2024-03-17T02:37:18;9.20;77.80
21493;DHT22;10908;50.690;4.400;2024-03-17T02:39:43;9.30;77.10
21493;DHT22;10908;50.690;4.400;2024-03-17T02:42:10;9.30;77.10
21493;DHT22;10908;50.690;4.400;2024-03-17T02:44:38;9.40;77.00
21493;DHT22;10908;50.690;4.400;2024-03-17T02:47:05;9.40;76.70
21493;DHT22;10908;50.690;4.400;2024-03-17T02:49:31;9.40;76.70
21493;DHT22;10908;50.690;4.400;2024-03-17T02:52:05;9.50;76.50
21493;DHT22;10908;50.690;4.400;2024-03-17T02:54:31;9.50;76.50
21493;DHT22;10908;50.690;4.400;2024-03-17T02:56:58;9.50;76.60
21493;DHT22;10908;50.690;4.400;2024-03-17T02:59:23;9.40;76.90
21493;DHT22;10908;50.690;4.400;2024-03-17T03:01:49;9.30;77.10
21493;DHT22;10908;50.690;4.400;2024-03-17T03:04:15;9.20;77.50
21493;DHT22;10908;50.690;4.400;2024-03-17T03:06:41;9.10;77.80
21493;DHT22;10908;50.690;4.400;2024-03-17T03:09:06;9.20;77.80
21493;DHT22;10908;50.690;4.400;2024-03-17T03:11:38;9.10;77.80
21493;DHT22;10908;50.690;4.400;2024-03-17T03:14:05;9.10;78.30
21493;DHT22;10908;50.690;4.400;2024-03-17T03:16:30;9.20;77.90
21493;DHT22;10908;50.690;4.400;2024-03-17T03:18:56;9.00;77.90
21493;DHT22;10908;50.690;4.400;2024-03-17T03:21:22;9.00;78.30
21493;DHT22;10908;50.690;4.400;2024-03-17T03:23:47;8.90;78.20
21493;DHT22;10908;50.690;4.400;2024-03-17T03:26:13;8.90;78.30
21493;DHT22;10908;50.690;4.400;2024-03-17T03:28:39;9.00;78.30
21493;DHT22;10908;50.690;4.400;2024-03-17T03:31:05;8.90;78.40
21493;DHT22;10908;50.690;4.400;2024-03-17T03:33:31;8.90;78.50
21493;DHT22;10908;50.690;4.400;2024-03-17T03:35:57;9.00;78.50
21493;DHT22;10908;50.690;4.400;2024-03-17T03:38:23;9.00;78.50
21493;DHT22;10908;50.690;4.400;2024-03-17T03:40:49;9.00;78.30
21493;DHT22;10908;50.690;4.400;2024-03-17T03:43:15;9.00;78.10
21493;DHT22;10908;50.690;4.400;2024-03-17T03:45:41;8.90;78.30
21493;DHT22;10908;50.690;4.400;2024-03-17T03:48:08;8.90;78.30
21493;DHT22;10908;50.690;4.400;2024-03-17T03:50:34;8.80;78.50
21493;DHT22;10908;50.690;4.400;2024-03-17T03:53:00;8.70;78.80
21493;DHT22;10908;50.690;4.400;2024-03-17T03:55:25;8.80;78.90
21493;DHT22;10908;50.690;4.400;2024-03-17T03:57:51;8.80;79.00
21493;DHT22;10908;50.690;4.400;2024-03-17T04:00:20;8.80;79.20
21493;DHT22;10908;50.690;4.400;2024-03-17T04:02:50;9.10;78.70
21493;DHT22;10908;50.690;4.400;2024-03-17T04:05:16;9.00;78.10
21493;DHT22;10908;50.690;4.400;2024-03-17T04:07:42;8.90;78.30
21493;DHT22;10908;50.690;4.400;2024-03-17T04:10:09;9.10;78.00
21493;DHT22;10908;50.690;4.400;2024-03-17T04:12:35;8.90;77.80
21493;DHT22;10908;50.690;4.400;2024-03-17T04:15:01;8.80;78.30
21493;DHT22;10908;50.690;4.400;2024-03-17T04:17:27;8.60;78.80
21493;DHT22;10908;50.690;4.400;2024-03-17T04:19:54;8.70;78.80
21493;DHT22;10908;50.690;4.400;2024-03-17T04:22:20;8.80;79.00
21493;DHT22;10908;50.690;4.400;2024-03-17T04:24:48;8.90;78.60
21493;DHT22;10908;50.690;4.400;2024-03-17T04:27:23;8.80;78.60
21493;DHT22;10908;50.690;4.400;2024-03-17T04:29:53;8.70;78.70
21493;DHT22;10908;50.690;4.400;2024-03-17T04:32:22;8.90;78.70
21493;DHT22;10908;50.690;4.400;2024-03-17T04:34:49;8.80;78.70
21493;DHT22;10908;50.690;4.400;2024-03-17T04:37:15;8.80;78.90
21493;DHT22;10908;50.690;4.400;2024-03-17T04:39:41;8.70;79.00
21493;DHT22;10908;50.690;4.400;2024-03-17T04:42:12;8.90;78.90
21493;DHT22;10908;50.690;4.400;2024-03-17T04:44:37;8.90;78.80
21493;DHT22;10908;50.690;4.400;2024-03-17T04:47:04;8.90;78.80
21493;DHT22;10908;50.690;4.400;2024-03-17T04:52:01;8.80;78.80
21493;DHT22;10908;50.690;4.400;2024-03-17T04:54:27;8.90;78.80
21493;DHT22;10908;50.690;4.400;2024-03-17T04:56:52;9.00;78.20
21493;DHT22;10908;50.690;4.400;2024-03-17T04:59:18;9.10;77.90
21493;DHT22;10908;50.690;4.400;2024-03-17T05:01:44;9.10;77.60
21493;DHT22;10908;50.690;4.400;2024-03-17T05:04:10;9.20;77.70
21493;DHT22;10908;50.690;4.400;2024-03-17T05:06:35;9.10;77.80
21493;DHT22;10908;50.690;4.400;2024-03-17T05:09:01;9.10;77.90
21493;DHT22;10908;50.690;4.400;2024-03-17T05:11:30;9.10;77.80
21493;DHT22;10908;50.690;4.400;2024-03-17T05:13:56;9.10;77.50
21493;DHT22;10908;50.690;4.400;2024-03-17T05:16:22;9.20;77.50
21493;DHT22;10908;50.690;4.400;2024-03-17T05:18:49;9.10;77.80
21493;DHT22;10908;50.690;4.400;2024-03-17T05:21:15;9.10;77.60
21493;DHT22;10908;50.690;4.400;2024-03-17T05:23:40;9.30;77.40
21493;DHT22;10908;50.690;4.400;2024-03-17T05:26:06;9.30;77.40
21493;DHT22;10908;50.690;4.400;2024-03-17T05:28:32;9.20;77.70
21493;DHT22;10908;50.690;4.400;2024-03-17T05:30:59;9.20;77.70
21493;DHT22;10908;50.690;4.400;2024-03-17T05:33:26;9.30;77.80
21493;DHT22;10908;50.690;4.400;2024-03-17T05:35:56;9.20;77.90
21493;DHT22;10908;50.690;4.400;2024-03-17T05:38:22;9.10;78.00
21493;DHT22;10908;50.690;4.400;2024-03-17T05:41:08;9.20;78.20
21493;DHT22;10908;50.690;4.400;2024-03-17T05:43:36;9.30;78.10
21493;DHT22;10908;50.690;4.400;2024-03-17T05:46:02;9.30;77.70
21493;DHT22;10908;50.690;4.400;2024-03-17T05:48:29;9.40;77.40
21493;DHT22;10908;50.690;4.400;2024-03-17T05:50:56;9.40;77.60
21493;DHT22;10908;50.690;4.400;2024-03-17T05:53:22;9.40;77.60
21493;DHT22;10908;50.690;4.400;2024-03-17T05:55:51;9.40;77.40
21493;DHT22;10908;50.690;4.400;2024-03-17T05:58:16;9.40;77.20
21493;DHT22;10908;50.690;4.400;2024-03-17T06:00:42;9.40;77.30
21493;DHT22;10908;50.690;4.400;2024-03-17T06:03:09;9.30;77.50
21493;DHT22;10908;50.690;4.400;2024-03-17T06:05:37;9.40;77.90
21493;DHT22;10908;50.690;4.400;2024-03-17T06:08:05;9.30;77.80
21493;DHT22;10908;50.690;4.400;2024-03-17T06:10:31;9.40;78.00
21493;DHT22;10908;50.690;4.400;2024-03-17T06:12:58;9.40;77.80
21493;DHT22;10908;50.690;4.400;2024-03-17T06:15:25;9.50;77.70
21493;DHT22;10908;50.690;4.400;2024-03-17T06:17:52;9.50;77.60
21493;DHT22;10908;50.690;4.400;2024-03-17T06:20:19;9.60;77.60
21493;DHT22;10908;50.690;4.400;2024-03-17T06:22:45;9.60;77.50
21493;DHT22;10908;50.690;4.400;2024-03-17T06:25:12;9.60;77.50
21493;DHT22;10908;50.690;4.400;2024-03-17T06:27:37;9.50;77.70
21493;DHT22;10908;50.690;4.400;2024-03-17T06:30:03;9.40;77.80
21493;DHT22;10908;50.690;4.400;2024-03-17T06:32:38;9.60;77.90
21493;DHT22;10908;50.690;4.400;2024-03-17T06:35:04;9.60;77.80
21493;DHT22;10908;50.690;4.400;2024-03-17T06:37:30;9.60;77.70
21493;DHT22;10908;50.690;4.400;2024-03-17T06:39:56;9.60;77.90
21493;DHT22;10908;50.690;4.400;2024-03-17T06:42:22;9.70;77.70
21493;DHT22;10908;50.690;4.400;2024-03-17T06:44:47;9.80;77.50
21493;DHT22;10908;50.690;4.400;2024-03-17T06:47:13;9.80;77.30
21493;DHT22;10908;50.690;4.400;2024-03-17T06:49:38;9.70;77.60
21493;DHT22;10908;50.690;4.400;2024-03-17T06:52:04;9.60;77.90
21493;DHT22;10908;50.690;4.400;2024-03-17T06:54:30;9.80;78.00
21493;DHT22;10908;50.690;4.400;2024-03-17T06:56:58;9.70;78.10
21493;DHT22;10908;50.690;4.400;2024-03-17T06:59:24;9.70;78.10
21493;DHT22;10908;50.690;4.400;2024-03-17T07:01:50;9.70;78.10
21493;DHT22;10908;50.690;4.400;2024-03-17T07:04:16;9.80;78.00
21493;DHT22;10908;50.690;4.400;2024-03-17T07:06:46;9.90;77.90
21493;DHT22;10908;50.690;4.400;2024-03-17T07:09:12;9.90;77.40
21493;DHT22;10908;50.690;4.400;2024-03-17T07:11:38;9.90;77.50
21493;DHT22;10908;50.690;4.400;2024-03-17T07:14:03;9.90;77.70
21493;DHT22;10908;50.690;4.400;2024-03-17T07:16:30;9.80;77.40
21493;DHT22;10908;50.690;4.400;2024-03-17T07:18:57;9.90;77.80
21493;DHT22;10908;50.690;4.400;2024-03-17T07:21:23;9.90;78.30
21493;DHT22;10908;50.690;4.400;2024-03-17T07:23:48;9.90;78.50
21493;DHT22;10908;50.690;4.400;2024-03-17T07:26:14;9.90;78.90
21493;DHT22;10908;50.690;4.400;2024-03-17T07:28:40;10.00;78.90
21493;DHT22;10908;50.690;4.400;2024-03-17T07:31:08;10.00;78.90
21493;DHT22;10908;50.690;4.400;2024-03-17T07:33:35;10.00;78.80
21493;DHT22;10908;50.690;4.400;2024-03-17T07:36:00;10.00;78.90
21493;DHT22;10908;50.690;4.400;2024-03-17T07:38:28;10.10;79.00
21493;DHT22;10908;50.690;4.400;2024-03-17T07:43:24;10.30;79.30
21493;DHT22;10908;50.690;4.400;2024-03-17T07:46:06;10.40;79.70
21493;DHT22;10908;50.690;4.400;2024-03-17T07:48:36;10.50;79.10
21493;DHT22;10908;50.690;4.400;2024-03-17T07:51:04;10.40;79.20
21493;DHT22;10908;50.690;4.400;2024-03-17T07:53:30;10.60;79.30
21493;DHT22;10908;50.690;4.400;2024-03-17T07:56:04;10.70;79.40
21493;DHT22;10908;50.690;4.400;2024-03-17T07:58:31;10.80;79.40
21493;DHT22;10908;50.690;4.400;2024-03-17T08:01:01;10.80;78.90
21493;DHT22;10908;50.690;4.400;2024-03-17T08:03:31;10.90;78.90
21493;DHT22;10908;50.690;4.400;2024-03-17T08:06:01;11.00;78.60
21493;DHT22;10908;50.690;4.400;2024-03-17T08:08:28;11.00;78.30
21493;DHT22;10908;50.690;4.400;2024-03-17T08:10:54;11.00;78.00
21493;DHT22;10908;50.690;4.400;2024-03-17T08:13:20;10.90;78.50
21493;DHT22;10908;50.690;4.400;2024-03-17T08:15:54;10.90;78.50
21493;DHT22;10908;50.690;4.400;2024-03-17T08:18:20;11.00;78.60
21493;DHT22;10908;50.690;4.400;2024-03-17T08:20:46;11.00;78.60
21493;DHT22;10908;50.690;4.400;2024-03-17T08:23:15;11.00;78.70
21493;DHT22;10908;50.690;4.400;2024-03-17T08:25:40;11.00;78.80
21493;DHT22;10908;50.690;4.400;2024-03-17T08:28:06;11.00;79.00
21493;DHT22;10908;50.690;4.400;2024-03-17T08:30:33;11.20;79.20
21493;DHT22;10908;50.690;4.400;2024-03-17T08:32:59;11.30;78.60
21493;DHT22;10908;50.690;4.400;2024-03-17T08:35:25;11.40;78.50
21493;DHT22;10908;50.690;4.400;2024-03-17T08:37:51;11.50;78.50
21493;DHT22;10908;50.690;4.400;2024-03-17T08:40:20;11.50;78.60
21493;DHT22;10908;50.690;4.400;2024-03-17T08:42:46;11.50;78.40
21493;DHT22;10908;50.690;4.400;2024-03-17T08:45:11;11.60;78.40
21493;DHT22;10908;50.690;4.400;2024-03-17T08:47:38;11.50;78.20
21493;DHT22;10908;50.690;4.400;2024-03-17T08:50:04;11.70;78.30
21493;DHT22;10908;50.690;4.400;2024-03-17T08:52:30;11.70;78.50
21493;DHT22;10908;50.690;4.400;2024-03-17T08:54:59;11.70;77.90
21493;DHT22;10908;50.690;4.400;2024-03-17T08:57:25;11.70;77.50
21493;DHT22;10908;50.690;4.400;2024-03-17T08:59:51;11.80;77.90
21493;DHT22;10908;50.690;4.400;2024-03-17T09:02:18;11.80;78.30
21493;DHT22;10908;50.690;4.400;2024-03-17T09:04:46;11.90;78.40
21493;DHT22;10908;50.690;4.400;2024-03-17T09:07:12;11.90;77.30
21493;DHT22;10908;50.690;4.400;2024-03-17T09:09:41;11.90;77.10
21493;DHT22;10908;50.690;4.400;2024-03-17T09:12:07;11.90;77.30
21493;DHT22;10908;50.690;4.400;2024-03-17T09:14:32;11.90;77.80
21493;DHT22;10908;50.690;4.400;2024-03-17T09:16:58;11.90;77.40
21493;DHT22;10908;50.690;4.400;2024-03-17T09:19:24;12.10;77.20
21493;DHT22;10908;50.690;4.400;2024-03-17T09:21:50;12.10;77.30
21493;DHT22;10908;50.690;4.400;2024-03-17T09:24:15;12.10;77.80
21493;DHT22;10908;50.690;4.400;2024-03-17T09:26:41;12.10;78.10
21493;DHT22;10908;50.690;4.400;2024-03-17T09:29:06;12.00;77.70
21493;DHT22;10908;50.690;4.400;2024-03-17T09:31:32;12.00;77.20
21493;DHT22;10908;50.690;4.400;2024-03-17T09:34:02;12.10;77.40
21493;DHT22;10908;50.690;4.400;2024-03-17T09:36:27;12.10;77.70
21493;DHT22;10908;50.690;4.400;2024-03-17T09:38:53;12.10;77.70
21493;DHT22;10908;50.690;4.400;2024-03-17T09:41:23;12.20;77.40
21493;DHT22;10908;50.690;4.400;2024-03-17T09:43:58;12.20;77.70
21493;DHT22;10908;50.690;4.400;2024-03-17T09:46:25;12.40;78.50
21493;DHT22;10908;50.690;4.400;2024-03-17T09:48:53;12.40;77.90
21493;DHT22;10908;50.690;4.400;2024-03-17T09:51:23;12.50;77.80
21493;DHT22;10908;50.690;4.400;2024-03-17T09:53:50;12.60;77.80
21493;DHT22;10908;50.690;4.400;2024-03-17T09:56:18;12.60;77.60
21493;DHT22;10908;50.690;4.400;2024-03-17T09:58:45;12.70;77.30
21493;DHT22;10908;50.690;4.400;2024-03-17T10:01:11;12.70;77.00
21493;DHT22;10908;50.690;4.400;2024-03-17T10:03:51;12.70;77.60
21493;DHT22;10908;50.690;4.400;2024-03-17T10:06:19;12.60;77.40
21493;DHT22;10908;50.690;4.400;2024-03-17T10:08:49;12.60;77.50
21493;DHT22;10908;50.690;4.400;2024-03-17T10:11:23;12.50;78.00
21493;DHT22;10908;50.690;4.400;2024-03-17T10:14:03;12.40;78.70
21493;DHT22;10908;50.690;4.400;2024-03-17T10:16:30;12.50;78.40
21493;DHT22;10908;50.690;4.400;2024-03-17T10:19:07;12.50;78.20
21493;DHT22;10908;50.690;4.400;2024-03-17T10:21:33;12.50;78.70
21493;DHT22;10908;50.690;4.400;2024-03-17T10:26:37;12.70;79.20
21493;DHT22;10908;50.690;4.400;2024-03-17T10:29:05;12.80;78.50
21493;DHT22;10908;50.690;4.400;2024-03-17T10:31:39;12.90;78.70
21493;DHT22;10908;50.690;4.400;2024-03-17T10:34:05;13.00;78.30
21493;DHT22;10908;50.690;4.400;2024-03-17T10:36:31;13.00;78.40
21493;DHT22;10908;50.690;4.400;2024-03-17T10:38:57;13.00;78.10
21493;DHT22;10908;50.690;4.400;2024-03-17T10:41:23;12.90;78.10
21493;DHT22;10908;50.690;4.400;2024-03-17T10:43:51;13.00;78.40
21493;DHT22;10908;50.690;4.400;2024-03-17T10:46:17;12.90;78.10
21493;DHT22;10908;50.690;4.400;2024-03-17T10:48:44;12.90;78.50
21493;DHT22;10908;50.690;4.400;2024-03-17T10:51:17;12.80;79.50
21493;DHT22;10908;50.690;4.400;2024-03-17T10:53:46;13.00;79.10
21493;DHT22;10908;50.690;4.400;2024-03-17T10:56:15;13.20;79.00
21493;DHT22;10908;50.690;4.400;2024-03-17T10:58:48;13.30;79.20
21493;DHT22;10908;50.690;4.400;2024-03-17T11:01:20;13.40;79.10
21493;DHT22;10908;50.690;4.400;2024-03-17T11:03:46;13.50;78.30
21493;DHT22;10908;50.690;4.400;2024-03-17T11:06:12;13.60;77.90
21493;DHT22;10908;50.690;4.400;2024-03-17T11:08:39;13.80;78.20
21493;DHT22;10908;50.690;4.400;2024-03-17T11:11:07;13.90;77.60
21493;DHT22;10908;50.690;4.400;2024-03-17T11:13:34;13.90;77.30
21493;DHT22;10908;50.690;4.400;2024-03-17T11:16:02;13.90;77.30
21493;DHT22;10908;50.690;4.400;2024-03-17T11:18:35;14.00;77.00
21493;DHT22;10908;50.690;4.400;2024-03-17T11:21:04;14.10;76.60
21493;DHT22;10908;50.690;4.400;2024-03-17T11:23:40;14.10;76.20
21493;DHT22;10908;50.690;4.400;2024-03-17T11:26:07;14.20;76.70
21493;DHT22;10908;50.690;4.400;2024-03-17T11:31:35;14.20;76.90
21493;DHT22;10908;50.690;4.400;2024-03-17T11:34:02;14.20;76.50
21493;DHT22;10908;50.690;4.400;2024-03-17T11:36:37;14.20;77.10
21493;DHT22;10908;50.690;4.400;2024-03-17T11:39:07;14.40;76.60
21493;DHT22;10908;50.690;4.400;2024-03-17T11:41:46;14.70;76.50
21493;DHT22;10908;50.690;4.400;2024-03-17T11:46:59;14.80;75.40
21493;DHT22;10908;50.690;4.400;2024-03-17T11:52:02;14.80;75.70
21493;DHT22;10908;50.690;4.400;2024-03-17T11:54:35;14.80;75.40
21493;DHT22;10908;50.690;4.400;2024-03-17T11:57:09;14.90;75.40
21493;DHT22;10908;50.690;4.400;2024-03-17T11:59:38;14.90;75.30
21493;DHT22;10908;50.690;4.400;2024-03-17T12:02:26;15.10;76.80
21493;DHT22;10908;50.690;4.400;2024-03-17T12:04:54;15.30;75.10
21493;DHT22;10908;50.690;4.400;2024-03-17T12:07:21;15.30;74.30
21493;DHT22;10908;50.690;4.400;2024-03-17T12:09:51;15.30;74.00
21493;DHT22;10908;50.690;4.400;2024-03-17T12:14:45;15.30;74.50
21493;DHT22;10908;50.690;4.400;2024-03-17T12:17:12;15.30;74.60
21493;DHT22;10908;50.690;4.400;2024-03-17T12:19:44;15.30;75.50
21493;DHT22;10908;50.690;4.400;2024-03-17T12:22:17;15.40;74.70
21493;DHT22;10908;50.690;4.400;2024-03-17T12:24:51;15.60;74.50
21493;DHT22;10908;50.690;4.400;2024-03-17T12:27:19;15.80;74.50
21493;DHT22;10908;50.690;4.400;2024-03-17T12:29:46;15.70;72.90
21493;DHT22;10908;50.690;4.400;2024-03-17T12:32:25;15.60;72.50
21493;DHT22;10908;50.690;4.400;2024-03-17T12:34:55;15.50;73.00
21493;DHT22;10908;50.690;4.400;2024-03-17T12:37:24;15.50;74.30
21493;DHT22;10908;50.690;4.400;2024-03-17T12:39:52;15.60;74.00
21493;DHT22;10908;50.690;4.400;2024-03-17T12:42:23;15.60;73.80
21493;DHT22;10908;50.690;4.400;2024-03-17T12:44:52;15.60;74.20
21493;DHT22;10908;50.690;4.400;2024-03-17T12:47:19;15.50;73.80
21493;DHT22;10908;50.690;4.400;2024-03-17T12:49:47;15.40;73.60
21493;DHT22;10908;50.690;4.400;2024-03-17T12:52:26;15.30;74.20
21493;DHT22;10908;50.690;4.400;2024-03-17T13:00:37;15.30;73.80
21493;DHT22;10908;50.690;4.400;2024-03-17T13:03:04;15.30;74.70
21493;DHT22;10908;50.690;4.400;2024-03-17T13:05:30;15.30;74.40
21493;DHT22;10908;50.690;4.400;2024-03-17T13:07:57;15.30;74.90
21493;DHT22;10908;50.690;4.400;2024-03-17T13:10:25;15.20;74.00
21493;DHT22;10908;50.690;4.400;2024-03-17T13:13:01;15.10;74.20
21493;DHT22;10908;50.690;4.400;2024-03-17T13:15:28;15.00;74.40
21493;DHT22;10908;50.690;4.400;2024-03-17T13:17:57;14.90;74.60
21493;DHT22;10908;50.690;4.400;2024-03-17T13:20:23;14.90;75.00
21493;DHT22;10908;50.690;4.400;2024-03-17T13:22:49;14.90;74.60
21493;DHT22;10908;50.690;4.400;2024-03-17T13:25:17;14.90;75.40
21493;DHT22;10908;50.690;4.400;2024-03-17T13:27:46;14.90;74.50
21493;DHT22;10908;50.690;4.400;2024-03-17T13:30:12;14.90;74.80
21493;DHT22;10908;50.690;4.400;2024-03-17T13:32:39;14.90;75.10
21493;DHT22;10908;50.690;4.400;2024-03-17T13:35:06;15.00;75.30
21493;DHT22;10908;50.690;4.400;2024-03-17T13:37:34;15.10;75.70
21493;DHT22;10908;50.690;4.400;2024-03-17T13:40:00;15.20;75.70
21493;DHT22;10908;50.690;4.400;2024-03-17T13:42:28;15.20;75.70
21493;DHT22;10908;50.690;4.400;2024-03-17T13:44:54;15.20;74.90
21493;DHT22;10908;50.690;4.400;2024-03-17T13:47:19;15.20;74.60
21493;DHT22;10908;50.690;4.400;2024-03-17T13:49:45;15.30;74.70
21493;DHT22;10908;50.690;4.400;2024-03-17T13:52:12;15.40;74.20
21493;DHT22;10908;50.690;4.400;2024-03-17T13:54:37;15.40;74.90
21493;DHT22;10908;50.690;4.400;2024-03-17T13:57:03;15.40;73.60
21493;DHT22;10908;50.690;4.400;2024-03-17T13:59:30;15.30;74.00
21493;DHT22;10908;50.690;4.400;2024-03-17T14:01:57;15.30;74.30
21493;DHT22;10908;50.690;4.400;2024-03-17T14:04:23;15.30;73.90
21493;DHT22;10908;50.690;4.400;2024-03-17T14:06:48;15.20;74.60
21493;DHT22;10908;50.690;4.400;2024-03-17T14:09:16;15.20;75.20
21493;DHT22;10908;50.690;4.400;2024-03-17T14:11:45;15.20;75.60
21493;DHT22;10908;50.690;4.400;2024-03-17T14:14:11;15.20;75.30
21493;DHT22;10908;50.690;4.400;2024-03-17T14:16:37;15.20;75.60
21493;DHT22;10908;50.690;4.400;2024-03-17T14:19:04;15.10;74.80
21493;DHT22;10908;50.690;4.400;2024-03-17T14:21:30;15.00;73.70
21493;DHT22;10908;50.690;4.400;2024-03-17T14:23:56;14.90;74.50
21493;DHT22;10908;50.690;4.400;2024-03-17T14:26:22;14.80;75.10
21493;DHT22;10908;50.690;4.400;2024-03-17T14:28:48;14.90;76.00
21493;DHT22;10908;50.690;4.400;2024-03-17T14:31:16;15.00;76.40
21493;DHT22;10908;50.690;4.400;2024-03-17T14:33:43;15.00;76.70
21493;DHT22;10908;50.690;4.400;2024-03-17T14:36:09;14.90;76.90
21493;DHT22;10908;50.690;4.400;2024-03-17T14:38:35;14.90;77.00
21493;DHT22;10908;50.690;4.400;2024-03-17T14:41:01;14.90;77.60
21493;DHT22;10908;50.690;4.400;2024-03-17T14:43:27;14.90;78.40
21493;DHT22;10908;50.690;4.400;2024-03-17T14:45:53;14.90;78.60
21493;DHT22;10908;50.690;4.400;2024-03-17T14:48:19;14.90;78.70
21493;DHT22;10908;50.690;4.400;2024-03-17T14:50:45;14.80;79.10
21493;DHT22;10908;50.690;4.400;2024-03-17T14:53:10;14.80;79.20
21493;DHT22;10908;50.690;4.400;2024-03-17T14:55:36;14.80;79.80
21493;DHT22;10908;50.690;4.400;2024-03-17T14:58:02;14.80;79.80
21493;DHT22;10908;50.690;4.400;2024-03-17T15:00:28;14.90;80.10
21493;DHT22;10908;50.690;4.400;2024-03-17T15:02:56;14.80;80.60
21493;DHT22;10908;50.690;4.400;2024-03-17T15:05:22;14.80;79.90
21493;DHT22;10908;50.690;4.400;2024-03-17T15:07:49;14.60;80.20
21493;DHT22;10908;50.690;4.400;2024-03-17T15:10:15;14.70;80.70
21493;DHT22;10908;50.690;4.400;2024-03-17T15:12:43;14.60;80.80
21493;DHT22;10908;50.690;4.400;2024-03-17T15:15:10;14.50;80.40
21493;DHT22;10908;50.690;4.400;2024-03-17T15:17:36;14.40;79.80
21493;DHT22;10908;50.690;4.400;2024-03-17T15:20:02;14.30;80.00
21493;DHT22;10908;50.690;4.400;2024-03-17T15:22:38;14.30;80.10
21493;DHT22;10908;50.690;4.400;2024-03-17T15:25:04;14.30;80.50
21493;DHT22;10908;50.690;4.400;2024-03-17T15:27:30;14.20;80.10
21493;DHT22;10908;50.690;4.400;2024-03-17T15:29:56;14.30;80.70
21493;DHT22;10908;50.690;4.400;2024-03-17T15:32:21;14.30;80.60
21493;DHT22;10908;50.690;4.400;2024-03-17T15:34:48;14.20;80.90
21493;DHT22;10908;50.690;4.400;2024-03-17T15:37:14;14.20;80.80
21493;DHT22;10908;50.690;4.400;2024-03-17T15:39:41;14.10;80.60
21493;DHT22;10908;50.690;4.400;2024-03-17T15:42:09;14.20;80.20
21493;DHT22;10908;50.690;4.400;2024-03-17T15:44:38;14.10;80.20
21493;DHT22;10908;50.690;4.400;2024-03-17T15:47:05;14.10;80.50
21493;DHT22;10908;50.690;4.400;2024-03-17T15:49:31;14.10;80.40
21493;DHT22;10908;50.690;4.400;2024-03-17T15:51:56;14.10;80.50
21493;DHT22;10908;50.690;4.400;2024-03-17T15:54:23;14.10;80.30
21493;DHT22;10908;50.690;4.400;2024-03-17T15:56:48;14.00;80.20
21493;DHT22;10908;50.690;4.400;2024-03-17T15:59:14;13.90;80.60
21493;DHT22;10908;50.690;4.400;2024-03-17T16:01:43;13.90;80.80